Time;durP1;ratioP1;P1;durP2;ratioP2;P2;SDS_P1;SDS_P2;PMS_P1;PMS_P2;Temp;Humidity;BMP_temperature;BMP_pressure;BME280_temperature;BME280_humidity;BME280_pressure;Samples;Min_cycle;Max_cycle;Signal;HPM_P1;HPM_P2
2023/03/28 00:01:00;;;;;;;8.63;1.90;;;;;;;3.80;99.16;102500.72;4923590;29;20036;-84
2023/03/28 00:03:26;;;;;;;9.02;1.85;;;;;;;3.70;99.33;102481.44;4908859;29;20028;-84
2023/03/28 00:05:55;;;;;;;12.85;2.63;;;;;;;3.22;100.00;102484.88;4919374;29;20035;-84
2023/03/28 00:08:22;;;;;;;8.95;2.83;;;;;;;3.62;100.00;102498.69;4928745;29;20027;-84
2023/03/28 00:10:47;;;;;;;12.27;2.38;;;;;;;3.73;100.00;102489.16;4919520;29;20692;-84
2023/03/28 00:13:14;;;;;;;11.27;2.13;;;;;;;3.70;100.00;102497.22;4921718;29;20031;-85
2023/03/28 00:15:41;;;;;;;3.40;1.77;;;;;;;3.67;100.00;102506.94;4928535;29;20485;-84
2023/03/28 00:18:10;;;;;;;7.05;2.58;;;;;;;3.71;100.00;102508.03;4908568;29;20126;-84
2023/03/28 00:20:37;;;;;;;6.53;1.50;;;;;;;3.71;100.00;102499.72;4904845;29;20032;-84
2023/03/28 00:23:02;;;;;;;9.43;3.40;;;;;;;3.77;100.00;102504.06;4926926;29;20130;-85
2023/03/28 00:25:33;;;;;;;8.68;2.83;;;;;;;3.73;100.00;102489.16;4929219;29;20027;-85
2023/03/28 00:28:02;;;;;;;13.82;1.85;;;;;;;3.88;100.00;102502.03;4908478;29;20065;-84
2023/03/28 00:30:27;;;;;;;13.55;2.13;;;;;;;3.89;100.00;102500.09;4927927;29;20957;-84
2023/03/28 00:32:53;;;;;;;8.25;1.55;;;;;;;3.92;100.00;102502.25;4928351;29;20117;-85
2023/03/28 00:35:18;;;;;;;10.93;2.45;;;;;;;3.79;100.00;102487.16;4909574;29;21118;-85
2023/03/28 00:37:44;;;;;;;8.57;2.28;;;;;;;3.91;100.00;102506.97;4917197;29;20075;-84
2023/03/28 00:40:12;;;;;;;7.88;2.03;;;;;;;3.81;100.00;102509.84;4916858;29;20067;-84
2023/03/28 00:42:41;;;;;;;5.30;2.40;;;;;;;3.61;100.00;102514.47;4911424;29;20042;-85
2023/03/28 00:45:10;;;;;;;8.70;1.63;;;;;;;3.81;100.00;102507.09;4913650;29;20035;-85
2023/03/28 00:47:53;;;;;;;6.45;1.50;;;;;;;3.72;100.00;102509.66;4914174;29;20030;-84
2023/03/28 00:50:28;;;;;;;17.40;4.57;;;;;;;3.78;100.00;102513.22;4928580;29;20051;-84
2023/03/28 00:53:19;;;;;;;8.80;2.20;;;;;;;3.81;100.00;102502.34;4904177;29;20040;-84
2023/03/28 00:56:05;;;;;;;6.32;1.85;;;;;;;3.86;100.00;102510.63;4914630;29;20035;-85
2023/03/28 00:58:36;;;;;;;17.30;2.38;;;;;;;3.84;100.00;102507.34;4922707;29;20028;-84
2023/03/28 01:01:02;;;;;;;6.65;1.77;;;;;;;3.73;100.00;102497.47;4926126;29;20027;-84
2023/03/28 01:03:32;;;;;;;7.43;2.00;;;;;;;3.86;100.00;102505.09;4913622;29;20070;-84
2023/03/28 01:06:00;;;;;;;6.43;1.92;;;;;;;3.81;100.00;102502.34;4929660;29;20023;-84
2023/03/28 01:08:28;;;;;;;16.60;2.60;;;;;;;3.89;100.00;102502.84;4907927;29;20035;-85
2023/03/28 01:10:54;;;;;;;6.28;1.38;;;;;;;3.93;100.00;102509.47;4911688;29;20027;-85
2023/03/28 01:13:24;;;;;;;7.85;1.80;;;;;;;3.84;100.00;102500.97;4913386;29;20485;-84
2023/03/28 01:15:50;;;;;;;12.88;2.38;;;;;;;3.85;100.00;102502.59;4924866;29;20035;-84
2023/03/28 01:18:21;;;;;;;4.22;1.48;;;;;;;3.61;100.00;102497.03;4928419;29;20036;-84
2023/03/28 01:20:52;;;;;;;8.13;1.65;;;;;;;3.68;100.00;102497.50;4926836;29;20048;-85
2023/03/28 01:23:21;;;;;;;11.93;1.80;;;;;;;3.76;100.00;102490.53;4913885;29;20036;-84
2023/03/28 01:26:15;;;;;;;10.43;1.70;;;;;;;3.81;100.00;102494.06;4910281;29;21414;-85
2023/03/28 01:29:18;;;;;;;7.82;2.35;;;;;;;3.80;100.00;102494.38;4902550;29;20039;-85
2023/03/28 01:32:04;;;;;;;10.55;2.13;;;;;;;3.74;100.00;102479.72;4924127;29;20072;-85
2023/03/28 01:34:46;;;;;;;6.90;2.30;;;;;;;3.73;100.00;102489.16;4907928;29;20122;-85
2023/03/28 01:37:33;;;;;;;8.63;2.05;;;;;;;3.37;100.00;102480.34;4921282;29;20090;-85
2023/03/28 01:40:05;;;;;;;9.02;1.83;;;;;;;3.61;100.00;102488.72;4924869;29;20023;-84
2023/03/28 01:43:17;;;;;;;6.93;2.20;;;;;;;3.64;100.00;102488.13;4909344;29;20032;-84
2023/03/28 01:46:05;;;;;;;3.85;1.20;;;;;;;3.64;100.00;102483.41;4923485;29;20070;-85
2023/03/28 01:48:53;;;;;;;4.85;1.45;;;;;;;3.64;100.00;102491.72;4926120;29;20055;-85
2023/03/28 01:51:28;;;;;;;8.40;1.80;;;;;;;3.64;100.00;102488.13;4903122;29;20972;-85
2023/03/28 01:54:02;;;;;;;10.07;1.83;;;;;;;3.60;100.00;102484.28;4923359;29;20143;-85
2023/03/28 01:56:34;;;;;;;6.75;1.70;;;;;;;3.60;100.00;102478.75;4910494;29;20028;-84
2023/03/28 01:59:12;;;;;;;12.37;3.10;;;;;;;3.55;100.00;102482.41;4910603;29;20521;-85
2023/03/28 02:02:00;;;;;;;9.75;2.17;;;;;;;3.52;100.00;102477.47;4910169;29;20344;-85
2023/03/28 02:04:28;;;;;;;8.60;2.67;;;;;;;3.47;100.00;102481.06;4918625;29;20529;-85
2023/03/28 02:06:55;;;;;;;11.10;2.33;;;;;;;3.47;100.00;102481.06;4904667;29;20024;-85
2023/03/28 02:09:23;;;;;;;6.25;1.77;;;;;;;3.45;100.00;102483.31;4909893;29;20434;-85
2023/03/28 02:11:55;;;;;;;7.47;2.33;;;;;;;3.29;100.00;102451.38;4927673;29;20020;-85
2023/03/28 02:14:25;;;;;;;7.10;2.08;;;;;;;3.44;100.00;102481.66;4914486;29;20031;-85
2023/03/28 02:16:56;;;;;;;10.13;2.53;;;;;;;3.40;100.00;102474.25;4905554;29;20142;-85
2023/03/28 02:19:23;;;;;;;6.38;2.22;;;;;;;3.38;100.00;102476.47;4911513;29;20043;-85
2023/03/28 02:22:07;;;;;;;7.20;1.88;;;;;;;3.40;100.00;102479.78;4929452;29;20434;-85
2023/03/28 02:24:33;;;;;;;5.38;1.85;;;;;;;3.35;100.00;102483.41;4916418;29;20032;-85
2023/03/28 02:26:58;;;;;;;7.63;1.83;;;;;;;3.28;100.00;102482.91;4924167;29;20071;-85
2023/03/28 02:29:24;;;;;;;7.75;1.70;;;;;;;3.36;100.00;102489.78;4924360;29;20042;-85
2023/03/28 02:31:49;;;;;;;10.10;1.60;;;;;;;3.42;100.00;102489.44;4925779;29;20066;-85
2023/03/28 02:34:14;;;;;;;8.68;1.75;;;;;;;3.32;100.00;102489.53;4908511;29;20024;-85
2023/03/28 02:37:01;;;;;;;3.45;1.67;;;;;;;3.38;100.00;102477.28;4922547;29;20745;-85
2023/03/28 02:39:58;;;;;;;9.65;2.17;;;;;;;3.44;100.00;102480.84;4910990;29;20055;-85
2023/03/28 02:42:52;;;;;;;12.68;3.20;;;;;;;3.47;100.00;102485.78;4929694;29;20035;-85
2023/03/28 02:45:55;;;;;;;8.35;2.95;;;;;;;3.50;100.00;102478.84;4859415;29;20584;-85
2023/03/28 02:48:44;;;;;;;9.85;1.70;;;;;;;3.42;100.00;102478.38;4923093;29;20032;-85
2023/03/28 02:51:21;;;;;;;7.00;1.95;;;;;;;3.43;100.00;102474.47;4923173;29;20590;-85
2023/03/28 02:53:55;;;;;;;11.23;2.53;;;;;;;3.03;100.00;102476.44;4927093;29;20046;-85
2023/03/28 02:56:37;;;;;;;9.70;1.80;;;;;;;3.30;100.00;102479.84;4927047;29;20035;-85
2023/03/28 02:59:26;;;;;;;5.95;1.98;;;;;;;3.37;100.00;102475.66;4912069;29;20023;-85
2023/03/28 03:01:52;;;;;;;6.97;1.73;;;;;;;3.34;100.00;102475.41;4899882;29;20044;-85
2023/03/28 03:04:17;;;;;;;9.55;1.88;;;;;;;2.86;100.00;102467.72;4929687;29;20042;-85
2023/03/28 03:06:47;;;;;;;4.20;2.50;;;;;;;2.99;100.00;102469.84;4930211;29;20036;-86
2023/03/28 03:09:13;;;;;;;10.32;1.73;;;;;;;3.17;100.00;102470.28;4927177;29;20712;-85
2023/03/28 03:11:38;;;;;;;6.68;1.65;;;;;;;3.17;100.00;102453.69;4924836;29;20118;-85
2023/03/28 03:14:03;;;;;;;9.82;1.95;;;;;;;3.11;100.00;102458.41;4907064;29;20089;-85
2023/03/28 03:16:29;;;;;;;7.70;1.85;;;;;;;3.25;100.00;102473.25;4930648;29;20410;-85
2023/03/28 03:18:56;;;;;;;4.55;1.95;;;;;;;3.20;100.00;102469.69;4923844;29;20042;-85
2023/03/28 03:21:22;;;;;;;8.07;1.92;;;;;;;3.04;100.00;102471.75;4910715;29;20030;-85
2023/03/28 03:23:49;;;;;;;7.22;2.30;;;;;;;3.00;100.00;102470.69;4909961;29;20046;-85
2023/03/28 03:26:15;;;;;;;12.77;2.17;;;;;;;2.96;100.00;102467.66;4921339;29;20036;-85
2023/03/28 03:28:40;;;;;;;13.55;2.53;;;;;;;2.88;100.00;102462.72;4900957;29;20038;-85
2023/03/28 03:31:06;;;;;;;7.95;2.92;;;;;;;3.04;100.00;102475.34;4906984;29;20043;-85
2023/03/28 03:33:31;;;;;;;9.05;3.67;;;;;;;2.67;100.00;102455.69;4903049;29;20034;-85
2023/03/28 03:35:57;;;;;;;8.05;2.33;;;;;;;2.71;100.00;102476.94;4931984;29;20039;-85
2023/03/28 03:38:22;;;;;;;15.32;2.35;;;;;;;2.84;100.00;102476.28;4915011;29;20514;-85
2023/03/28 03:40:47;;;;;;;9.35;2.53;;;;;;;2.85;100.00;102477.97;4925476;29;20078;-85
2023/03/28 03:43:13;;;;;;;7.25;2.10;;;;;;;2.80;100.00;102477.16;4924653;29;20442;-85
2023/03/28 03:45:39;;;;;;;8.95;3.05;;;;;;;2.82;100.00;102480.47;4911755;29;20486;-86
2023/03/28 03:48:05;;;;;;;13.93;3.83;;;;;;;2.79;100.00;102481.03;4928882;29;20035;-85
2023/03/28 03:50:31;;;;;;;9.80;2.88;;;;;;;2.87;100.00;102488.75;4927998;29;20047;-85
2023/03/28 03:52:57;;;;;;;2.30;1.67;;;;;;;2.96;100.00;102494.50;4912176;29;20058;-85
2023/03/28 03:55:22;;;;;;;9.85;3.10;;;;;;;2.56;100.00;102472.31;4913800;29;20461;-85
2023/03/28 03:57:48;;;;;;;5.95;2.20;;;;;;;2.81;100.00;102495.41;4933354;29;20032;-85
2023/03/28 04:00:13;;;;;;;13.43;3.78;;;;;;;2.55;100.00;102476.22;4932673;29;20055;-85
2023/03/28 04:02:39;;;;;;;9.90;2.78;;;;;;;2.76;100.00;102484.38;4928211;29;20046;-85
2023/03/28 04:05:07;;;;;;;13.20;4.63;;;;;;;2.87;100.00;102494.28;4911018;29;20420;-85
2023/03/28 04:07:33;;;;;;;6.68;2.40;;;;;;;2.87;100.00;102483.22;4916608;29;21216;-85
2023/03/28 04:09:58;;;;;;;16.33;3.33;;;;;;;2.73;100.00;102476.66;4932426;29;20036;-85
2023/03/28 04:12:24;;;;;;;13.60;4.80;;;;;;;2.78;100.00;102495.97;4918464;29;20063;-85
2023/03/28 04:14:49;;;;;;;13.05;3.45;;;;;;;2.55;100.00;102487.25;4908952;29;20141;-86
2023/03/28 04:17:15;;;;;;;8.73;3.42;;;;;;;2.73;100.00;102493.25;4915931;29;20032;-85
2023/03/28 04:19:40;;;;;;;7.70;3.08;;;;;;;2.75;100.00;102496.56;4918367;29;20039;-85
2023/03/28 04:22:11;;;;;;;9.45;3.65;;;;;;;2.75;100.00;102496.56;4914849;29;20023;-85
2023/03/28 04:24:40;;;;;;;7.47;2.97;;;;;;;2.71;100.00;102496.28;4911035;29;20127;-85
2023/03/28 04:27:08;;;;;;;13.48;3.05;;;;;;;2.65;100.00;102503.78;4928023;29;20122;-85
2023/03/28 04:29:33;;;;;;;13.48;3.45;;;;;;;2.62;100.00;102487.75;4931782;29;20218;-85
2023/03/28 04:31:59;;;;;;;5.75;2.65;;;;;;;2.57;100.00;102496.09;4911009;29;20429;-85
2023/03/28 04:34:28;;;;;;;10.48;4.13;;;;;;;2.71;100.00;102499.06;4908477;29;20059;-85
2023/03/28 04:37:01;;;;;;;7.70;3.92;;;;;;;2.40;100.00;102501.13;4907907;29;20023;-85
2023/03/28 04:39:34;;;;;;;7.78;3.10;;;;;;;2.33;100.00;102497.84;4932382;29;20087;-84
2023/03/28 04:42:04;;;;;;;;;;;;;;;2.51;100.00;102502.75;4915167;29;20038;-85
2023/03/28 04:44:30;;;;;;;13.07;3.78;;;;;;;2.59;100.00;102493.03;4914480;29;20392;-85
2023/03/28 04:46:57;;;;;;;11.50;4.05;;;;;;;2.62;100.00;102496.06;4902419;29;20032;-85
2023/03/28 04:49:22;;;;;;;11.43;3.05;;;;;;;2.62;100.00;102509.06;4927472;29;20471;-85
2023/03/28 04:51:49;;;;;;;8.60;2.80;;;;;;;2.54;100.00;102490.31;4906706;29;20027;-85
2023/03/28 04:54:15;;;;;;;10.55;3.55;;;;;;;2.44;100.00;102486.47;4930721;29;20032;-85
2023/03/28 04:56:44;;;;;;;8.35;3.45;;;;;;;2.60;100.00;102500.22;4914769;29;20546;-85
2023/03/28 04:59:10;;;;;;;13.30;3.58;;;;;;;2.63;100.00;102510.69;4926670;29;20088;-85
2023/03/28 05:01:35;;;;;;;11.25;3.40;;;;;;;2.59;100.00;102515.16;4926242;29;20390;-85
2023/03/28 05:04:01;;;;;;;9.68;3.20;;;;;;;2.51;100.00;102508.28;4910924;29;20031;-85
2023/03/28 05:06:27;;;;;;;13.25;3.53;;;;;;;2.56;100.00;102510.19;4914880;29;20622;-84
2023/03/28 05:08:52;;;;;;;4.50;2.85;;;;;;;2.54;100.00;102501.34;4918119;29;20027;-85
2023/03/28 05:11:17;;;;;;;5.53;2.95;;;;;;;2.57;100.00;102512.69;4922162;29;20024;-84
2023/03/28 05:13:43;;;;;;;18.65;4.15;;;;;;;2.51;100.00;102501.91;4912544;29;20114;-85
2023/03/28 05:16:09;;;;;;;9.90;3.42;;;;;;;2.58;100.00;102514.31;4908856;29;20174;-85
2023/03/28 05:18:35;;;;;;;6.18;3.35;;;;;;;2.57;100.00;102512.69;4903279;29;20027;-84
2023/03/28 05:21:00;;;;;;;10.05;4.07;;;;;;;2.45;100.00;102498.34;4915080;29;20096;-85
2023/03/28 05:23:25;;;;;;;10.95;3.55;;;;;;;2.52;100.00;102518.22;4920144;29;20035;-84
2023/03/28 05:25:52;;;;;;;15.50;4.07;;;;;;;2.51;100.00;102522.09;4913466;29;20055;-85
2023/03/28 05:28:20;;;;;;;14.45;3.72;;;;;;;2.42;100.00;102496.16;4909580;29;20031;-85
2023/03/28 05:30:45;;;;;;;8.07;3.33;;;;;;;2.44;100.00;102514.09;4926520;29;20384;-84
2023/03/28 05:33:11;;;;;;;9.60;4.68;;;;;;;2.43;100.00;102506.09;4930365;29;20043;-84
2023/03/28 05:35:38;;;;;;;10.68;3.78;;;;;;;2.39;100.00;102505.00;4908021;29;20036;-84
2023/03/28 05:38:03;;;;;;;9.77;3.97;;;;;;;2.34;100.00;102507.78;4909742;29;20513;-84
2023/03/28 05:40:29;;;;;;;14.25;3.60;;;;;;;2.35;100.00;102524.09;4922774;29;20144;-84
2023/03/28 05:42:54;;;;;;;15.95;3.80;;;;;;;2.41;100.00;102524.91;4912282;29;20039;-85
2023/03/28 05:45:21;;;;;;;14.00;3.38;;;;;;;2.35;100.00;102520.50;4904400;29;20031;-84
2023/03/28 05:47:49;;;;;;;7.32;3.78;;;;;;;2.33;100.00;102512.50;4924620;29;20027;-84
2023/03/28 05:50:15;;;;;;;7.30;2.97;;;;;;;2.37;100.00;102513.59;4907763;29;20044;-85
2023/03/28 05:52:41;;;;;;;19.17;5.57;;;;;;;2.41;100.00;102508.31;4906900;29;20425;-84
2023/03/28 05:55:07;;;;;;;8.90;2.83;;;;;;;2.10;100.00;102513.13;4907341;29;20064;-84
2023/03/28 05:57:32;;;;;;;10.85;3.45;;;;;;;2.43;100.00;102517.97;4902380;29;20482;-84
2023/03/28 05:59:59;;;;;;;8.90;2.97;;;;;;;2.38;100.00;102517.16;4906852;29;20042;-84
2023/03/28 06:02:25;;;;;;;9.52;4.60;;;;;;;2.44;100.00;102518.81;4902383;29;20027;-84
2023/03/28 06:04:54;;;;;;;12.48;4.65;;;;;;;2.45;100.00;102520.47;4910691;29;20036;-84
2023/03/28 06:07:20;;;;;;;8.93;3.20;;;;;;;2.42;100.00;102521.03;4906635;29;20039;-84
2023/03/28 06:09:45;;;;;;;5.57;3.13;;;;;;;2.56;100.00;102519.31;4902677;29;20060;-85
2023/03/28 06:12:11;;;;;;;9.23;3.05;;;;;;;2.76;100.00;102521.16;4915072;29;20039;-82
2023/03/28 06:14:36;;;;;;;8.18;3.63;;;;;;;2.70;100.00;102538.03;4913720;29;20143;-80
2023/03/28 06:17:02;;;;;;;9.90;3.45;;;;;;;2.56;100.00;102544.19;4917741;29;20055;-80
2023/03/28 06:19:27;;;;;;;12.13;3.70;;;;;;;2.62;100.00;102537.53;4924243;29;20078;-80
2023/03/28 06:21:53;;;;;;;8.55;2.90;;;;;;;2.59;100.00;102538.09;4905777;29;20042;-80
2023/03/28 06:24:18;;;;;;;12.10;2.72;;;;;;;2.63;100.00;102535.59;4910075;29;20039;-80
2023/03/28 06:26:43;;;;;;;7.50;3.22;;;;;;;2.58;100.00;102541.97;4909508;29;20038;-80
2023/03/28 06:29:10;;;;;;;10.82;2.63;;;;;;;2.62;100.00;102537.53;4908239;29;20628;-80
2023/03/28 06:31:36;;;;;;;8.43;3.63;;;;;;;2.74;100.00;102539.13;4923839;29;20043;-80
2023/03/28 06:34:01;;;;;;;7.03;2.88;;;;;;;2.83;100.00;102543.78;4903080;29;20070;-80
2023/03/28 06:36:27;;;;;;;10.27;2.50;;;;;;;2.74;100.00;102539.13;4920945;29;20035;-80
2023/03/28 06:38:52;;;;;;;6.47;2.97;;;;;;;2.83;100.00;102540.22;4906951;29;20024;-80
2023/03/28 06:41:18;;;;;;;7.40;2.97;;;;;;;2.75;100.00;102536.09;4924048;29;20439;-80
2023/03/28 06:43:44;;;;;;;13.63;3.33;;;;;;;2.73;100.00;102543.00;4904156;29;20039;-80
2023/03/28 06:46:09;;;;;;;6.80;2.58;;;;;;;2.82;100.00;102530.25;4909209;29;20031;-80
2023/03/28 06:48:35;;;;;;;8.15;3.03;;;;;;;2.80;100.00;102532.47;4910560;29;20419;-79
2023/03/28 06:51:01;;;;;;;10.98;2.55;;;;;;;2.88;100.00;102534.63;4927842;29;20095;-80
2023/03/28 06:53:26;;;;;;;5.68;3.22;;;;;;;2.72;100.00;102528.38;4925742;29;20031;-80
2023/03/28 06:55:53;;;;;;;5.22;2.40;;;;;;;2.78;100.00;102529.16;4930798;29;20035;-80
2023/03/28 06:58:20;;;;;;;8.98;3.13;;;;;;;2.66;100.00;102543.34;4908804;29;20085;-79
2023/03/28 07:00:45;;;;;;;6.32;2.85;;;;;;;2.86;100.00;102539.63;4908787;29;20063;-80
2023/03/28 07:03:11;;;;;;;11.60;2.78;;;;;;;2.94;100.00;102547.31;4912196;29;20070;-80
2023/03/28 07:05:41;;;;;;;7.28;2.95;;;;;;;2.91;100.00;102539.63;4925493;29;20111;-80
2023/03/28 07:08:08;;;;;;;8.88;3.50;;;;;;;3.04;100.00;102544.50;4906216;29;22158;-79
2023/03/28 07:10:34;;;;;;;11.82;3.50;;;;;;;2.95;100.00;102546.22;4926595;29;20079;-80
2023/03/28 07:12:59;;;;;;;7.05;3.63;;;;;;;3.06;100.00;102547.00;4927847;29;20110;-80
2023/03/28 07:15:25;;;;;;;8.13;2.88;;;;;;;2.93;100.00;102531.84;4930161;29;20123;-80
2023/03/28 07:17:52;;;;;;;14.75;3.30;;;;;;;3.04;100.00;102541.75;4926550;29;20024;-80
2023/03/28 07:20:17;;;;;;;14.00;3.20;;;;;;;3.05;100.00;102543.38;4926119;29;20582;-80
2023/03/28 07:22:43;;;;;;;13.82;2.65;;;;;;;2.98;100.00;102540.13;4930525;29;20118;-80
2023/03/28 07:25:08;;;;;;;10.68;3.50;;;;;;;3.16;100.00;102557.16;4926343;29;20059;-80
2023/03/28 07:27:34;;;;;;;7.15;2.83;;;;;;;3.22;100.00;102545.75;4931502;29;20056;-80
2023/03/28 07:29:59;;;;;;;9.38;3.25;;;;;;;3.31;100.00;102554.31;4927618;29;20482;-80
2023/03/28 07:32:25;;;;;;;11.93;3.13;;;;;;;3.32;100.00;102544.88;4912273;29;20027;-80
2023/03/28 07:34:50;;;;;;;8.70;3.13;;;;;;;3.46;100.00;102551.41;4905657;29;20545;-81
2023/03/28 07:37:16;;;;;;;13.23;3.05;;;;;;;3.37;100.00;102553.16;4923453;29;20030;-80
2023/03/28 07:39:42;;;;;;;8.27;3.72;;;;;;;3.46;100.00;102556.13;4911709;29;20036;-81
2023/03/28 07:42:12;;;;;;;10.90;4.03;;;;;;;3.46;100.00;102553.38;4927050;29;20478;-80
2023/03/28 07:44:38;;;;;;;11.48;4.15;;;;;;;3.43;100.00;102551.97;4926533;29;20055;-80
2023/03/28 07:47:03;;;;;;;13.90;3.83;;;;;;;3.53;100.00;102555.81;4920915;29;20079;-80
2023/03/28 07:49:29;;;;;;;18.13;3.13;;;;;;;3.65;100.00;102561.81;4920078;29;20036;-80
2023/03/28 07:51:55;;;;;;;9.88;2.67;;;;;;;3.77;100.00;102556.69;4921597;29;20512;-80
2023/03/28 07:54:21;;;;;;;9.68;3.40;;;;;;;3.81;100.00;102562.47;4924316;29;20050;-81
2023/03/28 07:56:47;;;;;;;8.45;3.30;;;;;;;3.95;100.00;102559.88;4909481;29;20028;-81
2023/03/28 07:59:13;;;;;;;16.50;2.97;;;;;;;3.95;99.28;102557.91;4927793;29;20386;-81
2023/03/28 08:01:43;;;;;;;7.22;2.83;;;;;;;4.06;100.00;102564.19;4918670;29;20069;-81
2023/03/28 08:04:11;;;;;;;8.95;2.90;;;;;;;4.18;97.28;102567.41;4924392;29;20044;-81
2023/03/28 08:06:39;;;;;;;8.32;2.67;;;;;;;4.26;97.56;102569.53;4923961;29;20081;-81
2023/03/28 08:09:09;;;;;;;4.38;2.97;;;;;;;4.18;96.02;102561.84;4925068;29;20036;-81
2023/03/28 08:11:35;;;;;;;11.32;2.15;;;;;;;4.25;96.26;102573.41;4920459;29;20478;-81
2023/03/28 08:14:02;;;;;;;5.18;3.28;;;;;;;4.18;96.21;102558.25;4910239;29;20063;-81
2023/03/28 08:16:28;;;;;;;6.63;2.60;;;;;;;4.22;95.99;102562.91;4924201;29;20628;-81
2023/03/28 08:18:53;;;;;;;6.10;2.50;;;;;;;4.26;96.41;102566.75;4925157;29;20039;-80
2023/03/28 08:21:18;;;;;;;6.38;2.53;;;;;;;4.40;95.41;102568.81;4930414;29;20044;-82
2023/03/28 08:23:44;;;;;;;7.57;2.33;;;;;;;4.39;96.33;102573.53;4908158;29;20035;-81
2023/03/28 08:26:09;;;;;;;10.93;2.92;;;;;;;4.31;96.64;102570.59;4919137;29;20083;-81
2023/03/28 08:28:37;;;;;;;6.75;2.95;;;;;;;4.34;96.92;102570.00;4909895;29;20043;-82
2023/03/28 08:31:15;;;;;;;9.23;2.85;;;;;;;4.35;94.99;102566.13;4930826;29;20060;-81
2023/03/28 08:33:44;;;;;;;13.15;3.67;;;;;;;4.47;94.84;102561.00;4932594;29;20040;-81
2023/03/28 08:36:13;;;;;;;8.77;2.13;;;;;;;4.65;94.87;102567.69;4920569;29;20028;-81
2023/03/28 08:38:40;;;;;;;8.27;3.00;;;;;;;4.81;93.31;102568.34;4906755;29;20024;-81
2023/03/28 08:41:37;;;;;;;6.03;2.38;;;;;;;4.81;91.66;102563.63;4930301;29;20032;-81
2023/03/28 08:44:40;;;;;;;7.28;1.92;;;;;;;4.81;90.58;102568.34;4930542;29;20132;-81
2023/03/28 08:47:35;;;;;;;8.10;2.42;;;;;;;4.89;87.06;102565.72;4913394;29;20077;-82
2023/03/28 08:50:19;;;;;;;10.15;2.35;;;;;;;4.84;89.08;102567.72;4928199;29;20108;-82
2023/03/28 08:52:45;;;;;;;7.72;1.92;;;;;;;5.04;86.94;102567.47;4927036;29;20035;-81
2023/03/28 08:55:37;;;;;;;4.53;1.92;;;;;;;5.19;85.68;102566.41;4937095;29;20114;-81
2023/03/28 08:58:03;;;;;;;3.75;2.03;;;;;;;5.15;86.48;102559.00;4931611;29;20042;-81
2023/03/28 09:00:31;;;;;;;4.82;1.60;;;;;;;5.24;86.05;102555.22;4938297;29;20024;-81
2023/03/28 09:02:58;;;;;;;14.57;2.53;;;;;;;5.43;83.70;102558.00;4933727;29;20031;-82
2023/03/28 09:05:48;;;;;;;8.80;1.92;;;;;;;5.53;80.58;102556.19;4932402;29;20028;-82
2023/03/28 09:08:40;;;;;;;4.43;1.63;;;;;;;5.64;79.53;102558.50;4910667;29;20508;-82
2023/03/28 09:11:15;;;;;;;6.05;1.60;;;;;;;5.52;79.31;102558.13;4928381;29;20115;-81
2023/03/28 09:14:38;;;;;;;6.00;2.28;;;;;;;5.39;79.94;102553.34;4927210;29;20040;-81
2023/03/28 09:17:38;;;;;;;8.25;1.90;;;;;;;5.42;78.21;102550.00;4875188;29;20433;-81
2023/03/28 09:20:22;;;;;;;8.77;1.95;;;;;;;5.64;75.81;102543.78;4873150;29;20048;-81
2023/03/28 09:23:15;;;;;;;4.95;2.47;;;;;;;5.70;75.98;102553.69;4904062;29;20075;-82
2023/03/28 09:25:41;;;;;;;;;;;;;;;5.62;79.60;102544.09;4912455;29;20043;-82
2023/03/28 09:28:13;;;;;;;9.25;3.65;;;;;;;5.67;77.31;102548.72;4909443;29;19918;-82
2023/03/28 09:30:45;;;;;;;3.17;2.00;;;;;;;5.84;75.64;102545.38;4927328;29;20131;-82
2023/03/28 09:33:17;;;;;;;10.30;3.03;;;;;;;5.95;74.36;102540.50;4922321;29;20031;-82
2023/03/28 09:35:45;;;;;;;13.52;2.50;;;;;;;5.94;74.23;102542.41;4927984;29;20481;-81
2023/03/28 09:38:39;;;;;;;4.13;2.20;;;;;;;6.02;75.20;102540.94;4925965;29;20074;-82
2023/03/28 09:41:15;;;;;;;12.32;2.38;;;;;;;5.90;78.00;102539.44;4899918;29;20079;-82
2023/03/28 09:43:44;;;;;;;6.85;2.75;;;;;;;5.90;79.86;102533.03;4927622;29;20023;-82
2023/03/28 09:46:33;;;;;;;4.95;2.70;;;;;;;5.86;74.80;102540.34;4920759;29;20478;-82
2023/03/28 09:48:58;;;;;;;3.13;2.72;;;;;;;5.90;73.24;102527.47;4931182;29;20030;-82
2023/03/28 09:51:24;;;;;;;11.63;2.80;;;;;;;6.15;75.25;102542.09;4930292;29;20043;-82
2023/03/28 09:53:50;;;;;;;6.88;2.92;;;;;;;6.15;74.45;102528.19;4927618;29;20032;-82
2023/03/28 09:56:18;;;;;;;4.68;2.70;;;;;;;6.24;73.95;102532.72;4909483;29;20389;-82
2023/03/28 09:58:55;;;;;;;11.43;3.35;;;;;;;6.29;75.25;102529.03;4925509;29;20042;-82
2023/03/28 10:01:41;;;;;;;7.03;3.08;;;;;;;6.20;75.54;102530.84;4925080;29;20032;-81
2023/03/28 10:04:12;;;;;;;4.97;2.50;;;;;;;6.33;72.80;102530.06;4931839;29;20406;-82
2023/03/28 10:06:39;;;;;;;9.85;3.05;;;;;;;6.37;74.80;102533.88;4914047;29;20074;-82
2023/03/28 10:09:24;;;;;;;15.45;2.95;;;;;;;6.27;74.29;102515.41;4926746;29;20027;-82
2023/03/28 10:11:58;;;;;;;6.00;3.38;;;;;;;6.44;70.93;102522.31;4915481;29;20086;-82
2023/03/28 10:14:45;;;;;;;7.47;2.80;;;;;;;6.31;75.17;102519.22;4931599;29;20303;-82
2023/03/28 10:17:20;;;;;;;7.72;3.05;;;;;;;6.24;76.22;102510.47;4931859;29;20467;-82
2023/03/28 10:19:47;;;;;;;9.95;3.55;;;;;;;6.28;74.17;102507.88;4908775;29;20545;-82
2023/03/28 10:22:19;;;;;;;7.63;2.83;;;;;;;6.49;72.48;102517.50;4925257;29;20057;-82
2023/03/28 10:24:46;;;;;;;10.30;3.15;;;;;;;6.51;71.57;102512.44;4923011;29;20044;-82
2023/03/28 10:27:22;;;;;;;11.02;4.07;;;;;;;6.40;74.56;102502.63;4911501;29;20486;-82
2023/03/28 10:29:50;;;;;;;5.05;2.78;;;;;;;6.54;71.83;102493.47;4903730;29;20030;-82
2023/03/28 10:32:27;;;;;;;8.85;3.78;;;;;;;6.58;70.97;102495.31;4903737;29;20035;-82
2023/03/28 10:35:08;;;;;;;7.38;3.38;;;;;;;6.79;71.85;102486.50;4922340;29;20032;-83
2023/03/28 10:37:34;;;;;;;9.15;3.15;;;;;;;6.54;71.33;102485.94;4907549;29;20027;-83
2023/03/28 10:40:06;;;;;;;8.60;2.83;;;;;;;6.58;71.65;102484.19;4919819;29;20399;-83
2023/03/28 10:42:44;;;;;;;5.05;3.17;;;;;;;6.59;72.96;102471.91;4909991;29;20020;-83
2023/03/28 10:45:19;;;;;;;5.50;3.22;;;;;;;6.53;71.56;102467.59;4922300;29;20034;-83
2023/03/28 10:47:44;;;;;;;6.47;3.05;;;;;;;6.59;71.17;102462.75;4923240;29;20024;-83
2023/03/28 10:50:55;;;;;;;5.72;2.85;;;;;;;6.83;71.04;102459.69;4922640;29;20068;-82
2023/03/28 10:53:35;;;;;;;4.05;2.70;;;;;;;6.83;69.16;102459.69;4916034;29;20130;-82
2023/03/28 10:56:25;;;;;;;8.43;3.13;;;;;;;6.88;69.46;102459.59;4909007;29;20057;-81
2023/03/28 10:59:15;;;;;;;9.52;3.33;;;;;;;6.95;70.78;102451.63;4907908;29;20035;-83
2023/03/28 11:02:18;;;;;;;5.97;3.08;;;;;;;7.17;70.84;102447.19;4923485;29;20107;-82
2023/03/28 11:05:00;;;;;;;6.50;2.85;;;;;;;7.13;66.59;102436.72;4927688;29;20046;-82
2023/03/28 11:07:35;;;;;;;7.75;3.47;;;;;;;7.20;67.32;102432.66;4925758;29;20178;-83
2023/03/28 11:10:23;;;;;;;6.72;3.10;;;;;;;7.21;65.62;102428.72;4922797;29;20027;-83
2023/03/28 11:13:16;;;;;;;5.10;3.42;;;;;;;7.28;66.10;102426.31;4912734;29;20031;-82
2023/03/28 11:16:28;;;;;;;7.82;4.22;;;;;;;7.33;66.45;102417.81;4912390;29;20075;-83
2023/03/28 11:19:06;;;;;;;6.70;3.60;;;;;;;7.53;67.09;102419.28;4884896;29;20453;-83
2023/03/28 11:21:42;;;;;;;4.72;2.75;;;;;;;7.68;67.76;102412.47;4929591;29;20032;-82
2023/03/28 11:24:29;;;;;;;9.63;3.42;;;;;;;7.86;66.42;102408.63;4909823;29;20118;-83
2023/03/28 11:27:42;;;;;;;7.45;3.05;;;;;;;7.96;66.07;102417.81;4922618;29;20087;-83
2023/03/28 11:30:31;;;;;;;11.85;3.03;;;;;;;8.01;66.79;102404.56;4845624;29;20037;-83
2023/03/28 11:33:07;;;;;;;7.75;3.00;;;;;;;8.21;65.47;102414.28;4906247;29;20051;-82
2023/03/28 11:35:48;;;;;;;7.13;3.17;;;;;;;8.24;66.01;102404.44;4914661;29;20031;-83
2023/03/28 11:38:21;;;;;;;9.10;3.58;;;;;;;8.21;64.69;102391.97;4910442;29;20043;-82
2023/03/28 11:40:56;;;;;;;5.20;2.63;;;;;;;8.34;65.73;102388.22;4911705;29;20038;-81
2023/03/28 11:43:34;;;;;;;6.68;2.90;;;;;;;8.22;64.81;102390.84;4924285;29;20405;-82
2023/03/28 11:46:15;;;;;;;9.05;3.53;;;;;;;8.33;64.76;102394.94;4918794;29;20035;-82
2023/03/28 11:49:09;;;;;;;6.25;3.30;;;;;;;8.41;62.19;102384.16;4925603;29;20031;-83